Time;durP1;ratioP1;P1;durP2;ratioP2;P2;SDS_P1;SDS_P2;PMS_P1;PMS_P2;Temp;Humidity;BMP_temperature;BMP_pressure;BME280_temperature;BME280_humidity;BME280_pressure;Samples;Min_cycle;Max_cycle;Signal;HPM_P1;HPM_P2
2023/03/23 00:01:01;;;;;;;15.68;8.60;;;;;;;;;;5087594;28;20063;-72
2023/03/23 00:03:31;;;;;;;15.80;7.75;;;;;;;;;;5084040;28;20098;-71
2023/03/23 00:06:04;;;;;;;14.73;7.53;;;;;;;;;;5086716;28;20043;-72
2023/03/23 00:08:31;;;;;;;16.20;8.75;;;;;;;;;;5062163;28;20470;-71
2023/03/23 00:11:00;;;;;;;15.65;8.57;;;;;;;;;;5083892;28;20044;-71
2023/03/23 00:13:30;;;;;;;15.80;9.05;;;;;;;;;;5081466;28;20071;-71
2023/03/23 00:15:57;;;;;;;17.38;10.90;;;;;;;;;;5083685;28;20044;-71
2023/03/23 00:18:25;;;;;;;19.10;12.55;;;;;;;;;;5064885;28;20048;-71
2023/03/23 00:20:53;;;;;;;22.00;14.38;;;;;;;;;;5080629;28;20063;-71
2023/03/23 00:23:22;;;;;;;23.23;15.52;;;;;;;;;;5083275;28;20056;-71
2023/03/23 00:25:50;;;;;;;28.00;16.95;;;;;;;;;;5081217;28;20048;-71
2023/03/23 00:28:19;;;;;;;28.13;19.20;;;;;;;;;;5088971;28;20052;-71
2023/03/23 00:30:47;;;;;;;29.52;19.02;;;;;;;;;;5078243;28;20488;-72
2023/03/23 00:33:16;;;;;;;31.58;19.92;;;;;;;;;;5070312;28;20070;-71
2023/03/23 00:35:44;;;;;;;34.15;21.67;;;;;;;;;;5065955;28;20059;-72
2023/03/23 00:38:12;;;;;;;36.08;21.63;;;;;;;;;;5085824;28;20070;-71
2023/03/23 00:40:39;;;;;;;34.75;22.58;;;;;;;;;;5084014;28;20098;-72
2023/03/23 00:43:08;;;;;;;41.40;24.23;;;;;;;;;;5085936;28;20063;-71
2023/03/23 00:45:36;;;;;;;43.05;25.05;;;;;;;;;;5085737;28;20048;-71
2023/03/23 00:48:05;;;;;;;46.40;26.92;;;;;;;;;;5083890;28;20118;-71
2023/03/23 00:50:32;;;;;;;50.80;27.25;;;;;;;;;;5085072;28;20059;-72
2023/03/23 00:53:00;;;;;;;44.95;26.65;;;;;;;;;;5080639;28;20047;-71
2023/03/23 00:55:27;;;;;;;50.20;28.85;;;;;;;;;;5077736;28;20048;-71
2023/03/23 00:57:54;;;;;;;43.25;27.05;;;;;;;;;;5085646;28;20441;-71
2023/03/23 01:00:22;;;;;;;40.00;26.83;;;;;;;;;;5085201;28;20048;-71
2023/03/23 01:02:51;;;;;;;35.95;24.25;;;;;;;;;;5068129;28;20464;-71
2023/03/23 01:05:20;;;;;;;35.10;22.15;;;;;;;;;;5078474;28;20080;-71
2023/03/23 01:07:48;;;;;;;31.45;19.00;;;;;;;;;;5067357;28;20128;-71
2023/03/23 01:10:17;;;;;;;24.48;16.42;;;;;;;;;;5064595;28;20498;-71
2023/03/23 01:12:45;;;;;;;20.23;13.52;;;;;;;;;;5082205;28;20127;-71
2023/03/23 01:15:17;;;;;;;18.58;12.45;;;;;;;;;;5074625;28;20134;-71
2023/03/23 01:17:44;;;;;;;21.45;12.57;;;;;;;;;;5064719;28;20040;-71
2023/03/23 01:20:12;;;;;;;21.08;12.73;;;;;;;;;;5077237;28;20060;-71
2023/03/23 01:22:41;;;;;;;24.52;14.13;;;;;;;;;;5084458;28;20048;-71
2023/03/23 01:25:09;;;;;;;22.15;14.38;;;;;;;;;;5085702;28;20055;-71
2023/03/23 01:27:36;;;;;;;21.83;14.10;;;;;;;;;;5086509;28;20117;-71
2023/03/23 01:30:04;;;;;;;29.30;16.20;;;;;;;;;;5085699;28;20040;-71
2023/03/23 01:32:31;;;;;;;25.33;16.58;;;;;;;;;;5084487;28;20051;-72
2023/03/23 01:34:59;;;;;;;28.45;16.88;;;;;;;;;;5083549;28;20048;-72
2023/03/23 01:37:26;;;;;;;27.02;16.38;;;;;;;;;;5087919;28;20048;-72
2023/03/23 01:39:56;;;;;;;29.85;15.35;;;;;;;;;;5074115;28;20105;-72
2023/03/23 01:42:24;;;;;;;24.25;13.02;;;;;;;;;;5087679;28;20048;-72
2023/03/23 01:45:10;;;;;;;25.40;12.25;;;;;;;;;;5079115;28;20348;-72
2023/03/23 01:47:37;;;;;;;20.02;10.93;;;;;;;;;;5066863;28;20044;-72
2023/03/23 01:50:05;;;;;;;16.73;11.27;;;;;;;;;;5083145;28;20372;-72
2023/03/23 01:52:33;;;;;;;21.95;10.77;;;;;;;;;;5081653;28;20056;-72
2023/03/23 01:55:02;;;;;;;20.95;10.32;;;;;;;;;;5088081;28;20052;-72
2023/03/23 01:57:31;;;;;;;20.90;9.25;;;;;;;;;;5084092;28;20071;-72
2023/03/23 01:59:59;;;;;;;17.25;9.20;;;;;;;;;;5081755;28;20051;-72
2023/03/23 02:02:27;;;;;;;21.73;8.90;;;;;;;;;;5077667;28;20055;-72
2023/03/23 02:04:57;;;;;;;15.63;8.30;;;;;;;;;;5062407;28;20043;-72
2023/03/23 02:07:24;;;;;;;16.25;6.93;;;;;;;;;;5084995;28;20530;-72
2023/03/23 02:09:52;;;;;;;18.50;7.88;;;;;;;;;;5084654;28;20043;-72
2023/03/23 02:12:20;;;;;;;17.08;7.72;;;;;;;;;;5067963;28;20088;-72
2023/03/23 02:14:48;;;;;;;13.60;7.13;;;;;;;;;;5084361;28;20044;-73
2023/03/23 02:17:19;;;;;;;13.45;7.03;;;;;;;;;;5084482;28;20159;-66
2023/03/23 02:20:06;;;;;;;14.20;7.18;;;;;;;;;;5081140;28;20252;-66
2023/03/23 02:22:45;;;;;;;14.88;6.65;;;;;;;;;;5084963;28;20052;-66
2023/03/23 02:25:23;;;;;;;13.40;6.50;;;;;;;;;;5083669;28;20056;-67
2023/03/23 02:28:02;;;;;;;14.73;6.15;;;;;;;;;;5082753;28;20056;-67
2023/03/23 02:30:37;;;;;;;14.68;6.25;;;;;;;;;;5055918;28;20385;-67
2023/03/23 02:33:28;;;;;;;12.38;6.07;;;;;;;;;;5073174;28;20056;-67
2023/03/23 02:35:59;;;;;;;18.98;5.40;;;;;;;;;;5079822;28;20044;-67
2023/03/23 02:38:30;;;;;;;14.60;5.80;;;;;;;;;;5083887;28;20048;-67
2023/03/23 02:40:58;;;;;;;13.63;4.75;;;;;;;;;;5083036;28;20044;-67
2023/03/23 02:43:27;;;;;;;13.15;4.97;;;;;;;;;;5084787;28;20135;-67
2023/03/23 02:45:55;;;;;;;14.48;4.85;;;;;;;;;;5086881;28;21425;-67
2023/03/23 02:48:24;;;;;;;13.70;4.43;;;;;;;;;;5083213;28;20419;-66
2023/03/23 02:50:53;;;;;;;11.15;4.93;;;;;;;;;;5087032;28;20044;-67
2023/03/23 02:53:23;;;;;;;12.75;4.75;;;;;;;;;;5086769;28;20048;-67
2023/03/23 02:55:52;;;;;;;14.13;4.50;;;;;;;;;;5078913;28;20139;-67
2023/03/23 02:58:20;;;;;;;11.95;4.82;;;;;;;;;;5081860;28;20051;-67
2023/03/23 03:00:49;;;;;;;13.48;4.63;;;;;;;;;;5083950;28;20923;-67
2023/03/23 03:03:18;;;;;;;16.13;4.53;;;;;;;;;;5087769;28;20078;-67
2023/03/23 03:05:48;;;;;;;9.35;4.40;;;;;;;;;;5086734;28;20499;-66
2023/03/23 03:08:20;;;;;;;12.35;4.53;;;;;;;;;;5059246;28;20048;-67
2023/03/23 03:10:51;;;;;;;12.40;4.90;;;;;;;;;;5068128;28;20094;-67
2023/03/23 03:13:25;;;;;;;10.73;4.45;;;;;;;;;;5086518;28;20132;-66
2023/03/23 03:15:55;;;;;;;12.68;4.97;;;;;;;;;;5088727;28;20130;-67
2023/03/23 03:18:25;;;;;;;9.15;4.30;;;;;;;;;;5078538;28;20044;-66
2023/03/23 03:20:54;;;;;;;15.35;5.13;;;;;;;;;;5074703;28;20044;-66
2023/03/23 03:23:23;;;;;;;27.95;5.38;;;;;;;;;;5084554;28;20055;-68
2023/03/23 03:25:53;;;;;;;18.10;5.75;;;;;;;;;;5089870;28;20054;-68
2023/03/23 03:28:21;;;;;;;15.50;5.20;;;;;;;;;;5077523;28;20083;-68
2023/03/23 03:30:49;;;;;;;13.80;4.30;;;;;;;;;;5086707;28;20133;-68
2023/03/23 03:33:17;;;;;;;12.65;4.53;;;;;;;;;;5083065;28;20056;-68
2023/03/23 03:35:45;;;;;;;18.75;4.63;;;;;;;;;;5088646;28;20076;-69
2023/03/23 03:38:12;;;;;;;15.13;5.22;;;;;;;;;;5086039;28;20136;-69
2023/03/23 03:40:40;;;;;;;15.52;4.68;;;;;;;;;;5087384;28;20040;-69
2023/03/23 03:43:08;;;;;;;16.13;4.30;;;;;;;;;;5087237;28;20475;-69
2023/03/23 03:45:36;;;;;;;23.25;4.35;;;;;;;;;;5062304;28;20048;-69
2023/03/23 03:48:03;;;;;;;18.50;3.15;;;;;;;;;;5084958;28;20120;-69
2023/03/23 03:50:30;;;;;;;17.30;3.28;;;;;;;;;;5088777;28;20071;-68
2023/03/23 03:52:58;;;;;;;9.77;2.10;;;;;;;;;;5087856;28;20388;-68
2023/03/23 03:55:27;;;;;;;15.65;3.53;;;;;;;;;;5086631;28;20132;-68
2023/03/23 03:57:55;;;;;;;17.13;3.60;;;;;;;;;;5084126;28;20059;-67
2023/03/23 04:00:24;;;;;;;15.40;3.50;;;;;;;;;;5086635;28;20048;-66
2023/03/23 04:02:54;;;;;;;14.65;3.33;;;;;;;;;;5070015;28;20056;-66
2023/03/23 04:05:22;;;;;;;15.10;3.05;;;;;;;;;;5086634;28;20048;-67
2023/03/23 04:07:51;;;;;;;17.25;3.08;;;;;;;;;;5080975;28;20040;-67
2023/03/23 04:10:19;;;;;;;12.65;2.80;;;;;;;;;;5079981;28;20047;-66
2023/03/23 04:12:46;;;;;;;12.73;2.55;;;;;;;;;;5082079;28;20143;-67
2023/03/23 04:15:14;;;;;;;20.65;2.78;;;;;;;;;;5075392;28;20139;-67
2023/03/23 04:17:43;;;;;;;14.20;2.60;;;;;;;;;;5080933;28;20131;-67
2023/03/23 04:20:15;;;;;;;11.60;1.90;;;;;;;;;;5081258;28;20056;-67
2023/03/23 04:22:44;;;;;;;13.90;2.47;;;;;;;;;;5082656;28;20089;-67
2023/03/23 04:25:13;;;;;;;14.50;2.70;;;;;;;;;;5084747;28;20048;-67
2023/03/23 04:27:43;;;;;;;13.85;2.22;;;;;;;;;;5082721;28;20063;-67
2023/03/23 04:30:11;;;;;;;16.42;2.72;;;;;;;;;;5065307;28;20131;-67
2023/03/23 04:32:41;;;;;;;18.27;3.10;;;;;;;;;;5083884;28;20052;-67
2023/03/23 04:35:12;;;;;;;17.50;2.17;;;;;;;;;;5084801;28;20054;-67
2023/03/23 04:37:40;;;;;;;20.23;3.10;;;;;;;;;;5084385;28;20131;-67
2023/03/23 04:40:11;;;;;;;21.60;3.20;;;;;;;;;;5079552;28;20048;-67
2023/03/23 04:42:39;;;;;;;22.77;3.85;;;;;;;;;;5082956;28;20044;-67
2023/03/23 04:45:07;;;;;;;22.48;3.42;;;;;;;;;;5084842;28;20094;-67
2023/03/23 04:47:39;;;;;;;20.20;3.58;;;;;;;;;;5086237;28;20048;-67
2023/03/23 04:50:08;;;;;;;23.17;3.05;;;;;;;;;;5067622;28;20063;-67
2023/03/23 04:52:37;;;;;;;21.40;3.10;;;;;;;;;;5087877;28;20089;-67
2023/03/23 04:55:06;;;;;;;21.50;3.70;;;;;;;;;;5080390;28;20052;-67
2023/03/23 04:57:33;;;;;;;28.33;3.97;;;;;;;;;;5082708;28;20080;-67
2023/03/23 05:00:00;;;;;;;22.50;3.47;;;;;;;;;;5077094;28;20373;-67
2023/03/23 05:02:30;;;;;;;21.70;4.40;;;;;;;;;;5080714;28;20051;-67
2023/03/23 05:04:58;;;;;;;34.00;4.18;;;;;;;;;;5082153;28;20061;-67
2023/03/23 05:07:25;;;;;;;26.60;3.35;;;;;;;;;;5083501;28;20043;-67
2023/03/23 05:09:54;;;;;;;28.83;4.50;;;;;;;;;;5081729;28;20056;-67
2023/03/23 05:12:21;;;;;;;26.40;3.95;;;;;;;;;;5083840;28;20044;-67
2023/03/23 05:14:48;;;;;;;33.10;4.55;;;;;;;;;;5087360;28;21117;-67
2023/03/23 05:17:16;;;;;;;27.20;3.85;;;;;;;;;;5081452;28;20048;-67
2023/03/23 05:19:47;;;;;;;29.67;4.75;;;;;;;;;;5079920;28;20075;-67
2023/03/23 05:22:14;;;;;;;32.08;4.90;;;;;;;;;;5066937;28;20062;-67
2023/03/23 05:24:42;;;;;;;32.38;4.30;;;;;;;;;;5084210;28;20054;-67
2023/03/23 05:27:11;;;;;;;41.72;4.80;;;;;;;;;;5084258;28;20044;-67
2023/03/23 05:29:40;;;;;;;34.15;5.05;;;;;;;;;;5082610;28;20437;-67
2023/03/23 05:32:08;;;;;;;36.50;5.18;;;;;;;;;;5082683;28;20052;-67
2023/03/23 05:34:35;;;;;;;28.67;3.97;;;;;;;;;;5081535;28;20040;-66
2023/03/23 05:37:03;;;;;;;34.55;5.38;;;;;;;;;;5084927;28;20056;-67
2023/03/23 05:39:32;;;;;;;39.67;4.95;;;;;;;;;;5082960;28;20761;-67
2023/03/23 05:41:59;;;;;;;31.33;4.93;;;;;;;;;;5083507;28;20467;-67
2023/03/23 05:44:29;;;;;;;33.90;5.25;;;;;;;;;;5067916;28;20055;-67
2023/03/23 05:46:56;;;;;;;31.77;5.10;;;;;;;;;;5084302;28;20040;-67
2023/03/23 05:49:24;;;;;;;23.30;3.47;;;;;;;;;;5087190;28;20479;-67
2023/03/23 05:51:51;;;;;;;31.35;4.03;;;;;;;;;;5083502;28;20067;-67
2023/03/23 05:54:19;;;;;;;32.92;4.63;;;;;;;;;;5086717;28;20140;-67
2023/03/23 05:56:48;;;;;;;27.23;3.83;;;;;;;;;;5082416;28;20052;-67
2023/03/23 05:59:16;;;;;;;28.08;3.20;;;;;;;;;;5081440;28;20048;-66
2023/03/23 06:01:44;;;;;;;21.23;2.60;;;;;;;;;;5081295;28;20048;-67
2023/03/23 06:04:13;;;;;;;15.73;2.63;;;;;;;;;;5079599;28;20058;-67
2023/03/23 06:06:43;;;;;;;15.43;2.13;;;;;;;;;;5077254;28;20044;-67
2023/03/23 06:09:11;;;;;;;16.23;2.97;;;;;;;;;;5084348;28;20465;-67
2023/03/23 06:11:38;;;;;;;16.55;1.85;;;;;;;;;;5085789;28;20052;-66
2023/03/23 06:14:05;;;;;;;12.98;2.00;;;;;;;;;;5079835;28;20059;-67
2023/03/23 06:16:33;;;;;;;16.40;2.25;;;;;;;;;;5080726;28;20048;-67
2023/03/23 06:19:03;;;;;;;14.38;1.92;;;;;;;;;;5082994;28;20127;-67
2023/03/23 06:21:31;;;;;;;14.63;2.40;;;;;;;;;;5076803;28;20380;-67
2023/03/23 06:23:59;;;;;;;11.55;1.30;;;;;;;;;;5085304;28;20044;-66
2023/03/23 06:26:29;;;;;;;15.95;2.30;;;;;;;;;;5066424;28;20059;-66
2023/03/23 06:28:57;;;;;;;14.38;2.38;;;;;;;;;;5067343;28;20076;-66
2023/03/23 06:31:24;;;;;;;14.75;2.53;;;;;;;;;;5086807;28;20045;-66
2023/03/23 06:33:52;;;;;;;16.15;2.50;;;;;;;;;;5085814;28;20043;-66
2023/03/23 06:36:22;;;;;;;16.35;2.10;;;;;;;;;;5089823;28;20105;-66
2023/03/23 06:38:49;;;;;;;19.55;2.63;;;;;;;;;;5083361;28;20392;-67
2023/03/23 06:41:17;;;;;;;19.48;3.40;;;;;;;;;;5082782;28;20052;-66
2023/03/23 06:43:46;;;;;;;22.80;4.13;;;;;;;;;;5085250;28;20044;-66
2023/03/23 06:46:13;;;;;;;20.60;4.00;;;;;;;;;;5085962;28;20127;-67
2023/03/23 06:48:40;;;;;;;26.10;3.75;;;;;;;;;;5083475;28;20067;-66
2023/03/23 06:51:08;;;;;;;29.77;4.18;;;;;;;;;;5087763;28;20079;-66
2023/03/23 06:53:37;;;;;;;29.48;3.95;;;;;;;;;;5086620;28;20047;-67
2023/03/23 06:56:04;;;;;;;28.95;4.07;;;;;;;;;;5088393;28;20063;-67
2023/03/23 06:58:32;;;;;;;39.17;4.63;;;;;;;;;;5090007;28;20052;-67
2023/03/23 07:00:59;;;;;;;29.52;4.70;;;;;;;;;;5084773;28;20166;-66
2023/03/23 07:03:27;;;;;;;39.08;5.90;;;;;;;;;;5087480;28;20052;-66
2023/03/23 07:05:55;;;;;;;40.55;5.18;;;;;;;;;;5083263;28;20503;-66
2023/03/23 07:08:22;;;;;;;41.95;6.82;;;;;;;;;;5085366;28;20048;-67
2023/03/23 07:10:53;;;;;;;39.78;6.18;;;;;;;;;;5083902;28;20102;-66
2023/03/23 07:13:21;;;;;;;53.92;6.10;;;;;;;;;;5083130;28;20047;-66
2023/03/23 07:15:50;;;;;;;45.20;7.30;;;;;;;;;;5082522;28;20048;-66
2023/03/23 07:18:17;;;;;;;38.03;5.47;;;;;;;;;;5081859;28;20476;-66
2023/03/23 07:20:45;;;;;;;37.72;5.80;;;;;;;;;;5085450;28;20085;-67
2023/03/23 07:23:12;;;;;;;43.40;6.15;;;;;;;;;;5069080;28;20790;-66
2023/03/23 07:25:40;;;;;;;51.22;7.60;;;;;;;;;;5068017;28;20052;-66
2023/03/23 07:28:09;;;;;;;59.35;7.32;;;;;;;;;;5084832;28;20047;-66
2023/03/23 07:30:36;;;;;;;41.08;7.20;;;;;;;;;;5086995;28;20054;-66
2023/03/23 07:33:05;;;;;;;44.25;6.75;;;;;;;;;;5085347;28;20047;-66
2023/03/23 07:35:33;;;;;;;50.47;7.88;;;;;;;;;;5089491;28;20488;-66
2023/03/23 07:38:00;;;;;;;40.05;6.25;;;;;;;;;;5077425;28;20076;-67
2023/03/23 07:40:28;;;;;;;52.00;7.05;;;;;;;;;;5084658;28;20125;-67
2023/03/23 07:42:56;;;;;;;47.55;6.07;;;;;;;;;;5077428;28;20044;-66
2023/03/23 07:45:26;;;;;;;43.13;7.03;;;;;;;;;;5084616;28;20461;-68
2023/03/23 07:47:53;;;;;;;37.40;5.43;;;;;;;;;;5083298;28;20521;-68
2023/03/23 07:50:23;;;;;;;46.28;7.03;;;;;;;;;;5082966;28;20120;-68
2023/03/23 07:52:52;;;;;;;40.92;5.38;;;;;;;;;;5081982;28;20043;-68
2023/03/23 07:55:20;;;;;;;36.60;6.32;;;;;;;;;;5082793;28;20465;-68
2023/03/23 07:57:48;;;;;;;36.42;5.95;;;;;;;;;;5083637;28;20051;-72
2023/03/23 08:00:19;;;;;;;40.33;5.80;;;;;;;;;;5080035;28;20166;-72
2023/03/23 08:02:48;;;;;;;36.03;6.07;;;;;;;;;;5081727;28;20048;-72
2023/03/23 08:05:17;;;;;;;40.75;6.57;;;;;;;;;;5082743;28;20356;-71
2023/03/23 08:07:45;;;;;;;40.50;5.60;;;;;;;;;;5086085;28;20101;-71
2023/03/23 08:10:14;;;;;;;44.65;6.15;;;;;;;;;;5083312;28;20048;-72
2023/03/23 08:12:42;;;;;;;42.20;6.28;;;;;;;;;;5086066;28;20380;-71
2023/03/23 08:15:12;;;;;;;40.67;5.43;;;;;;;;;;5084319;28;20513;-72
2023/03/23 08:17:39;;;;;;;37.95;6.05;;;;;;;;;;5063992;28;20593;-71
2023/03/23 08:20:12;;;;;;;36.22;4.93;;;;;;;;;;5078092;28;20040;-71
2023/03/23 08:22:40;;;;;;;41.00;5.87;;;;;;;;;;5083469;28;20044;-71
2023/03/23 08:25:09;;;;;;;35.10;5.53;;;;;;;;;;5081474;28;20294;-71
2023/03/23 08:27:36;;;;;;;30.55;5.45;;;;;;;;;;5082742;28;20071;-71
2023/03/23 08:30:04;;;;;;;33.78;6.32;;;;;;;;;;5081228;28;20143;-71
2023/03/23 08:32:32;;;;;;;32.28;4.68;;;;;;;;;;5085920;28;20048;-72
2023/03/23 08:34:59;;;;;;;43.20;6.43;;;;;;;;;;5078940;28;20211;-71
2023/03/23 08:37:28;;;;;;;30.33;5.60;;;;;;;;;;5081453;28;20052;-72
2023/03/23 08:39:56;;;;;;;38.33;6.25;;;;;;;;;;5059004;28;20052;-72
2023/03/23 08:42:24;;;;;;;36.90;4.82;;;;;;;;;;5082786;28;20134;-72
2023/03/23 08:44:51;;;;;;;39.30;6.10;;;;;;;;;;5080637;28;20066;-71
2023/03/23 08:47:19;;;;;;;34.92;5.47;;;;;;;;;;5077735;28;20575;-72
2023/03/23 08:49:46;;;;;;;37.92;5.82;;;;;;;;;;5085923;28;20072;-72
2023/03/23 08:52:15;;;;;;;39.33;5.93;;;;;;;;;;5084589;28;20040;-71
2023/03/23 08:54:46;;;;;;;36.78;5.70;;;;;;;;;;5086532;28;20487;-71
2023/03/23 08:57:18;;;;;;;42.20;6.80;;;;;;;;;;5082230;28;20040;-71
2023/03/23 08:59:45;;;;;;;41.17;6.07;;;;;;;;;;5084020;28;20056;-73
2023/03/23 09:02:13;;;;;;;40.80;7.05;;;;;;;;;;5079442;28;20060;-72
2023/03/23 09:04:42;;;;;;;39.65;6.00;;;;;;;;;;5079158;28;20044;-71
2023/03/23 09:07:10;;;;;;;37.13;6.20;;;;;;;;;;5083345;28;20056;-71
2023/03/23 09:09:39;;;;;;;36.83;5.75;;;;;;;;;;5078861;28;20044;-71
2023/03/23 09:12:08;;;;;;;37.55;5.40;;;;;;;;;;5084663;28;20052;-71
2023/03/23 09:14:35;;;;;;;39.67;5.15;;;;;;;;;;5082384;28;20094;-71
2023/03/23 09:17:03;;;;;;;43.53;6.90;;;;;;;;;;5080478;28;20048;-71
2023/03/23 09:19:31;;;;;;;32.88;5.43;;;;;;;;;;5086379;28;20052;-71
2023/03/23 09:21:58;;;;;;;25.85;4.88;;;;;;;;;;5081136;28;20368;-72
2023/03/23 09:24:26;;;;;;;41.80;6.28;;;;;;;;;;5088429;28;20717;-72
2023/03/23 09:26:53;;;;;;;27.42;4.63;;;;;;;;;;5077616;28;20083;-72
2023/03/23 09:29:22;;;;;;;40.67;6.68;;;;;;;;;;5087331;28;20051;-72
2023/03/23 09:31:49;;;;;;;41.28;6.35;;;;;;;;;;5082352;28;20064;-73
2023/03/23 09:34:16;;;;;;;39.35;7.13;;;;;;;;;;5085930;28;20056;-72
2023/03/23 09:36:44;;;;;;;41.75;5.70;;;;;;;;;;5084609;28;20040;-73
2023/03/23 09:39:11;;;;;;;40.42;6.05;;;;;;;;;;5062635;28;20458;-73
2023/03/23 09:42:00;;;;;;;41.55;5.65;;;;;;;;;;5083494;28;20075;-73
2023/03/23 09:44:32;;;;;;;34.10;5.55;;;;;;;;;;5081441;28;20057;-73
2023/03/23 09:47:02;;;;;;;46.30;6.38;;;;;;;;;;5084749;28;20074;-73
2023/03/23 09:49:32;;;;;;;34.17;4.93;;;;;;;;;;5080400;28;20143;-73
2023/03/23 09:52:03;;;;;;;29.27;5.05;;;;;;;;;;5081168;28;20051;-73
2023/03/23 09:54:31;;;;;;;35.90;5.18;;;;;;;;;;5081156;28;20151;-73
2023/03/23 09:57:00;;;;;;;36.10;5.43;;;;;;;;;;5083646;28;20048;-73
2023/03/23 09:59:32;;;;;;;36.83;5.20;;;;;;;;;;5091302;28;20047;-73
2023/03/23 10:02:00;;;;;;;36.65;4.95;;;;;;;;;;5088688;28;20098;-73
2023/03/23 10:04:32;;;;;;;25.30;4.40;;;;;;;;;;5082827;28;20638;-71
2023/03/23 10:07:01;;;;;;;37.72;5.18;;;;;;;;;;5062062;28;20091;-71
2023/03/23 10:09:28;;;;;;;40.05;5.53;;;;;;;;;;5085400;28;20079;-71
2023/03/23 10:12:02;;;;;;;31.83;6.28;;;;;;;;;;5090716;28;20093;-71
2023/03/23 10:14:34;;;;;;;39.65;5.85;;;;;;;;;;5090100;28;20448;-71
2023/03/23 10:17:05;;;;;;;34.00;5.72;;;;;;;;;;5089303;28;20040;-71
2023/03/23 10:19:35;;;;;;;30.30;5.30;;;;;;;;;;5091806;28;20079;-71
2023/03/23 10:22:06;;;;;;;30.85;5.05;;;;;;;;;;5088889;28;20131;-72
2023/03/23 10:24:36;;;;;;;29.52;5.28;;;;;;;;;;5087218;28;20044;-71
2023/03/23 10:27:07;;;;;;;30.83;4.82;;;;;;;;;;5085294;28;20403;-71
2023/03/23 10:29:37;;;;;;;37.10;5.40;;;;;;;;;;5090591;28;20048;-71
2023/03/23 10:32:10;;;;;;;37.13;5.20;;;;;;;;;;5080036;28;20044;-71
2023/03/23 10:34:43;;;;;;;30.13;5.00;;;;;;;;;;5067360;28;20059;-71
2023/03/23 10:37:13;;;;;;;37.25;5.28;;;;;;;;;;5077324;28;20816;-71
2023/03/23 10:39:45;;;;;;;33.25;4.47;;;;;;;;;;5087976;28;20040;-72
2023/03/23 10:42:13;;;;;;;39.60;4.90;;;;;;;;;;5090482;28;20048;-71
2023/03/23 10:44:42;;;;;;;39.20;5.25;;;;;;;;;;5085346;28;20051;-71
2023/03/23 10:47:10;;;;;;;26.70;4.70;;;;;;;;;;5085970;28;20055;-71
2023/03/23 10:49:39;;;;;;;26.35;4.97;;;;;;;;;;5084275;28;20129;-71
2023/03/23 10:52:26;;;;;;;30.65;5.15;;;;;;;;;;5089184;28;20056;-65
2023/03/23 10:54:56;;;;;;;31.13;5.30;;;;;;;;;;5072303;28;20526;-66
2023/03/23 10:57:26;;;;;;;33.10;5.47;;;;;;;;;;5080533;28;20069;-66
2023/03/23 10:59:59;;;;;;;28.60;4.72;;;;;;;;;;5082741;28;20497;-66
2023/03/23 11:02:27;;;;;;;25.30;4.60;;;;;;;;;;5085405;28;20048;-66
2023/03/23 11:05:03;;;;;;;32.80;5.45;;;;;;;;;;5086805;28;20044;-66
2023/03/23 11:07:33;;;;;;;29.20;5.32;;;;;;;;;;5084645;28;20743;-66
2023/03/23 11:10:08;;;;;;;29.30;4.68;;;;;;;;;;5084208;28;20075;-66
2023/03/23 11:12:36;;;;;;;26.15;4.72;;;;;;;;;;5085029;28;20471;-66
2023/03/23 11:15:18;;;;;;;29.25;3.92;;;;;;;;;;5081118;28;20055;-66
2023/03/23 11:17:56;;;;;;;25.65;4.85;;;;;;;;;;5083822;28;20079;-66
2023/03/23 11:20:23;;;;;;;23.55;3.72;;;;;;;;;;5085736;28;20180;-66
2023/03/23 11:22:50;;;;;;;29.02;4.00;;;;;;;;;;5087204;28;20052;-66
2023/03/23 11:25:18;;;;;;;28.73;4.18;;;;;;;;;;5086366;28;20407;-65
2023/03/23 11:27:45;;;;;;;22.35;4.78;;;;;;;;;;5083891;28;20053;-66
2023/03/23 11:30:21;;;;;;;18.33;3.85;;;;;;;;;;5087812;28;20491;-66
2023/03/23 11:32:49;;;;;;;24.90;3.80;;;;;;;;;;5082848;28;20093;-66
2023/03/23 11:35:18;;;;;;;25.13;4.45;;;;;;;;;;5085817;28;20052;-66
2023/03/23 11:37:48;;;;;;;24.23;4.70;;;;;;;;;;5086899;28;20479;-66
2023/03/23 11:40:18;;;;;;;23.63;4.25;;;;;;;;;;5083995;28;20523;-66
2023/03/23 11:42:46;;;;;;;34.35;5.00;;;;;;;;;;5082700;28;20040;-66
2023/03/23 11:45:22;;;;;;;19.92;3.70;;;;;;;;;;5079232;28;20127;-65
2023/03/23 11:47:58;;;;;;;29.15;4.10;;;;;;;;;;5082673;28;20070;-66
2023/03/23 11:50:26;;;;;;;28.05;4.28;;;;;;;;;;5077779;28;20040;-66
2023/03/23 11:52:57;;;;;;;27.67;3.92;;;;;;;;;;5081125;28;20044;-66
2023/03/23 11:55:28;;;;;;;26.30;4.05;;;;;;;;;;5083509;28;20080;-66
2023/03/23 11:57:56;;;;;;;27.20;4.10;;;;;;;;;;5088341;28;20051;-66
2023/03/23 12:00:25;;;;;;;29.05;4.22;;;;;;;;;;5081970;28;20054;-66
2023/03/23 12:02:58;;;;;;;27.98;5.22;;;;;;;;;;5081659;28;20574;-66
2023/03/23 12:05:32;;;;;;;22.90;4.43;;;;;;;;;;5076702;28;20138;-66
2023/03/23 12:08:06;;;;;;;22.42;4.30;;;;;;;;;;5080949;28;20078;-66
2023/03/23 12:10:38;;;;;;;26.65;4.40;;;;;;;;;;5077650;28;20130;-65
2023/03/23 12:13:12;;;;;;;26.20;4.72;;;;;;;;;;5066009;28;20063;-66
2023/03/23 12:15:45;;;;;;;26.73;4.28;;;;;;;;;;5080534;28;20128;-66
2023/03/23 12:18:19;;;;;;;32.13;4.72;;;;;;;;;;5080481;28;20135;-66
2023/03/23 12:20:51;;;;;;;20.27;3.85;;;;;;;;;;5082521;28;20087;-67
2023/03/23 12:23:23;;;;;;;24.13;3.88;;;;;;;;;;5063719;28;20053;-66
2023/03/23 12:25:57;;;;;;;27.52;5.00;;;;;;;;;;5066912;28;20048;-66
2023/03/23 12:28:31;;;;;;;28.00;4.95;;;;;;;;;;5086288;28;20054;-66
2023/03/23 12:31:02;;;;;;;31.65;4.13;;;;;;;;;;5082396;28;20044;-66
2023/03/23 12:33:35;;;;;;;23.58;4.30;;;;;;;;;;5081956;28;20054;-65
2023/03/23 12:36:11;;;;;;;23.52;4.18;;;;;;;;;;5081673;28;20048;-66
2023/03/23 12:38:48;;;;;;;23.55;4.15;;;;;;;;;;5087997;28;20121;-66
2023/03/23 12:41:18;;;;;;;28.38;4.13;;;;;;;;;;5082228;28;20082;-66
2023/03/23 12:43:54;;;;;;;28.67;3.72;;;;;;;;;;5081869;28;20135;-66
2023/03/23 12:46:34;;;;;;;24.70;4.60;;;;;;;;;;5079306;28;20044;-66
2023/03/23 12:49:04;;;;;;;28.92;5.18;;;;;;;;;;5084617;28;20055;-65
2023/03/23 12:51:34;;;;;;;21.00;4.70;;;;;;;;;;5087515;28;20051;-65
2023/03/23 12:54:05;;;;;;;26.92;5.10;;;;;;;;;;5086170;28;20044;-66
2023/03/23 12:56:34;;;;;;;24.88;4.75;;;;;;;;;;5084016;28;20059;-66
2023/03/23 12:59:05;;;;;;;29.55;4.43;;;;;;;;;;5083455;28;20044;-66
2023/03/23 13:01:38;;;;;;;20.05;4.00;;;;;;;;;;5082375;28;20043;-66
2023/03/23 13:04:07;;;;;;;25.42;4.38;;;;;;;;;;5083948;28;20491;-66
2023/03/23 13:06:36;;;;;;;22.98;4.07;;;;;;;;;;5082180;28;20139;-65
2023/03/23 13:09:08;;;;;;;22.75;3.55;;;;;;;;;;5083056;28;20052;-66
2023/03/23 13:11:36;;;;;;;27.00;4.57;;;;;;;;;;5082667;28;20047;-66
2023/03/23 13:14:08;;;;;;;31.35;4.38;;;;;;;;;;5083213;28;20044;-66
2023/03/23 13:16:41;;;;;;;25.13;4.53;;;;;;;;;;5086635;28;20048;-66
2023/03/23 13:19:12;;;;;;;28.80;4.85;;;;;;;;;;5086703;28;20146;-66
2023/03/23 13:21:42;;;;;;;21.77;4.22;;;;;;;;;;5082683;28;20502;-65
2023/03/23 13:24:12;;;;;;;23.67;4.32;;;;;;;;;;5087436;28;20051;-65
2023/03/23 13:26:40;;;;;;;28.60;4.63;;;;;;;;;;5081646;28;20125;-65
2023/03/23 13:29:11;;;;;;;27.88;5.20;;;;;;;;;;5087647;28;20109;-66
2023/03/23 13:31:40;;;;;;;23.80;4.72;;;;;;;;;;5081997;28;20147;-66
2023/03/23 13:34:14;;;;;;;24.10;3.90;;;;;;;;;;5081079;28;20101;-66
2023/03/23 13:36:43;;;;;;;22.08;4.65;;;;;;;;;;5084419;28;20072;-66
2023/03/23 13:39:19;;;;;;;23.33;4.43;;;;;;;;;;5066232;28;20232;-66
2023/03/23 13:41:50;;;;;;;28.55;4.40;;;;;;;;;;5082152;28;20052;-66
2023/03/23 13:44:18;;;;;;;24.27;4.15;;;;;;;;;;5081573;28;20483;-66
2023/03/23 13:46:58;;;;;;;21.88;4.45;;;;;;;;;;5073730;28;20044;-66
2023/03/23 13:49:27;;;;;;;21.63;4.45;;;;;;;;;;5084416;28;20454;-66
2023/03/23 13:52:16;;;;;;;23.02;4.45;;;;;;;;;;5082063;28;20414;-66
2023/03/23 13:54:45;;;;;;;20.23;3.78;;;;;;;;;;5084601;28;20040;-65
2023/03/23 13:57:37;;;;;;;19.17;4.07;;;;;;;;;;5086518;28;20074;-66
2023/03/23 14:00:15;;;;;;;25.25;3.72;;;;;;;;;;5068597;28;20128;-67
2023/03/23 14:02:44;;;;;;;19.20;4.63;;;;;;;;;;5062441;28;20048;-66
2023/03/23 14:05:13;;;;;;;20.55;4.15;;;;;;;;;;5077941;28;20051;-66
2023/03/23 14:08:01;;;;;;;16.15;3.80;;;;;;;;;;5082784;28;20309;-66
2023/03/23 14:10:40;;;;;;;17.75;3.78;;;;;;;;;;5081175;28;20040;-67
2023/03/23 14:13:17;;;;;;;20.47;3.60;;;;;;;;;;5078794;28;20109;-67
2023/03/23 14:15:45;;;;;;;17.10;3.67;;;;;;;;;;5081515;28;20045;-67
2023/03/23 14:18:17;;;;;;;19.95;4.10;;;;;;;;;;5079574;28;20044;-67
2023/03/23 14:20:47;;;;;;;16.40;3.67;;;;;;;;;;5073301;28;20057;-67
2023/03/23 14:23:17;;;;;;;19.55;3.13;;;;;;;;;;5084481;28;20052;-66
2023/03/23 14:25:44;;;;;;;18.63;3.60;;;;;;;;;;5056423;28;20059;-67
2023/03/23 14:28:20;;;;;;;22.42;3.58;;;;;;;;;;5083738;28;20227;-66
2023/03/23 14:30:48;;;;;;;16.20;3.47;;;;;;;;;;5075129;28;20090;-66
2023/03/23 14:33:16;;;;;;;13.57;3.20;;;;;;;;;;5085500;28;20467;-67
2023/03/23 14:35:46;;;;;;;18.45;3.47;;;;;;;;;;5082488;28;20055;-67
2023/03/23 14:38:16;;;;;;;16.85;3.42;;;;;;;;;;5080456;28;20044;-67
2023/03/23 14:40:43;;;;;;;19.40;3.70;;;;;;;;;;5063462;28;20067;-67
2023/03/23 14:43:12;;;;;;;17.77;3.67;;;;;;;;;;5085242;28;20095;-67